Airport View

Enter ICAO identifier to see the current METAR for that AWOS.

KFNL for example

KFOA 020115Z AUTO 20006KT 10SM CLR 23/20 A2992

2 Sep 2014 01:48

Frequency: 120.175

Phone: 618-662-8355

Other Area AWOS: KOLY - KFWC - KSLO - K1H2

TAF KEVV 012335Z 0200/0224 23010KT P6SM SCT050 BKN150 FM020600 21008KT P6SM VCTS BKN050CB PROB30 0209/0213 2SM +TSRA BR BKN015CB FM021300 24007KT 6SM HZ BKN025 FM021700 25007KT P6SM BKN040